sensor_id;sensor_type;location;lat;lon;timestamp;P1;durP1;ratioP1;P2;durP2;ratioP2
74152;SDS011;62505;46.070;14.492;2023-05-07T00:01:29;3.08;;;2.38;;
74152;SDS011;62505;46.070;14.492;2023-05-07T00:03:56;3.28;;;2.55;;
74152;SDS011;62505;46.070;14.492;2023-05-07T00:06:24;3.92;;;2.50;;
74152;SDS011;62505;46.070;14.492;2023-05-07T00:08:53;3.63;;;2.30;;
74152;SDS011;62505;46.070;14.492;2023-05-07T00:11:22;3.35;;;2.28;;
74152;SDS011;62505;46.070;14.492;2023-05-07T00:13:50;2.90;;;2.42;;
74152;SDS011;62505;46.070;14.492;2023-05-07T00:16:17;5.45;;;2.58;;
74152;SDS011;62505;46.070;14.492;2023-05-07T00:18:44;3.90;;;2.85;;
74152;SDS011;62505;46.070;14.492;2023-05-07T00:21:11;2.95;;;2.50;;
74152;SDS011;62505;46.070;14.492;2023-05-07T00:23:39;3.60;;;2.90;;
74152;SDS011;62505;46.070;14.492;2023-05-07T00:26:06;2.60;;;2.40;;
74152;SDS011;62505;46.070;14.492;2023-05-07T00:28:33;5.45;;;2.45;;
74152;SDS011;62505;46.070;14.492;2023-05-07T00:31:00;3.42;;;2.40;;
74152;SDS011;62505;46.070;14.492;2023-05-07T00:33:27;3.95;;;2.42;;
74152;SDS011;62505;46.070;14.492;2023-05-07T00:35:54;3.40;;;2.40;;
74152;SDS011;62505;46.070;14.492;2023-05-07T00:38:20;2.72;;;2.35;;
74152;SDS011;62505;46.070;14.492;2023-05-07T00:40:49;3.78;;;2.30;;
74152;SDS011;62505;46.070;14.492;2023-05-07T00:43:16;5.30;;;2.40;;
74152;SDS011;62505;46.070;14.492;2023-05-07T00:45:43;3.35;;;2.50;;
74152;SDS011;62505;46.070;14.492;2023-05-07T00:48:10;2.83;;;2.22;;
74152;SDS011;62505;46.070;14.492;2023-05-07T00:50:37;3.00;;;2.38;;
74152;SDS011;62505;46.070;14.492;2023-05-07T00:53:04;2.70;;;2.25;;
74152;SDS011;62505;46.070;14.492;2023-05-07T00:55:32;2.97;;;2.30;;
74152;SDS011;62505;46.070;14.492;2023-05-07T00:58:00;3.40;;;2.38;;
74152;SDS011;62505;46.070;14.492;2023-05-07T01:00:27;2.80;;;2.53;;
74152;SDS011;62505;46.070;14.492;2023-05-07T01:02:54;4.10;;;2.42;;
74152;SDS011;62505;46.070;14.492;2023-05-07T01:05:21;2.63;;;2.30;;
74152;SDS011;62505;46.070;14.492;2023-05-07T01:07:50;3.67;;;2.25;;
74152;SDS011;62505;46.070;14.492;2023-05-07T01:10:19;3.13;;;2.28;;
74152;SDS011;62505;46.070;14.492;2023-05-07T01:12:47;6.28;;;2.30;;
74152;SDS011;62505;46.070;14.492;2023-05-07T01:15:17;3.05;;;2.33;;
74152;SDS011;62505;46.070;14.492;2023-05-07T01:17:44;2.75;;;2.20;;
74152;SDS011;62505;46.070;14.492;2023-05-07T01:20:11;3.25;;;2.58;;
74152;SDS011;62505;46.070;14.492;2023-05-07T01:22:40;3.45;;;2.30;;
74152;SDS011;62505;46.070;14.492;2023-05-07T01:25:09;2.75;;;2.40;;
74152;SDS011;62505;46.070;14.492;2023-05-07T01:27:35;3.42;;;2.30;;
74152;SDS011;62505;46.070;14.492;2023-05-07T01:30:02;2.85;;;1.90;;
74152;SDS011;62505;46.070;14.492;2023-05-07T01:32:32;2.20;;;2.00;;
74152;SDS011;62505;46.070;14.492;2023-05-07T01:35:05;4.32;;;2.47;;
74152;SDS011;62505;46.070;14.492;2023-05-07T01:37:34;2.60;;;2.08;;
74152;SDS011;62505;46.070;14.492;2023-05-07T01:40:03;2.20;;;1.88;;
74152;SDS011;62505;46.070;14.492;2023-05-07T01:42:30;3.22;;;2.13;;
74152;SDS011;62505;46.070;14.492;2023-05-07T01:44:58;2.90;;;2.28;;
74152;SDS011;62505;46.070;14.492;2023-05-07T01:47:25;3.28;;;2.20;;
74152;SDS011;62505;46.070;14.492;2023-05-07T01:49:52;5.28;;;2.30;;
74152;SDS011;62505;46.070;14.492;2023-05-07T01:52:19;3.00;;;2.50;;
74152;SDS011;62505;46.070;14.492;2023-05-07T01:54:46;3.05;;;2.42;;
74152;SDS011;62505;46.070;14.492;2023-05-07T01:57:15;3.55;;;2.20;;
74152;SDS011;62505;46.070;14.492;2023-05-07T01:59:42;3.30;;;2.58;;
74152;SDS011;62505;46.070;14.492;2023-05-07T02:02:08;2.97;;;2.20;;
74152;SDS011;62505;46.070;14.492;2023-05-07T02:04:35;3.00;;;2.38;;
74152;SDS011;62505;46.070;14.492;2023-05-07T02:07:02;2.47;;;2.20;;
74152;SDS011;62505;46.070;14.492;2023-05-07T02:09:29;2.72;;;2.20;;
74152;SDS011;62505;46.070;14.492;2023-05-07T02:11:56;3.10;;;2.08;;
74152;SDS011;62505;46.070;14.492;2023-05-07T02:14:24;3.53;;;2.08;;
74152;SDS011;62505;46.070;14.492;2023-05-07T02:16:51;2.65;;;2.00;;
74152;SDS011;62505;46.070;14.492;2023-05-07T02:19:18;3.45;;;2.33;;
74152;SDS011;62505;46.070;14.492;2023-05-07T02:21:46;3.88;;;2.55;;
74152;SDS011;62505;46.070;14.492;2023-05-07T02:24:13;2.28;;;2.05;;
74152;SDS011;62505;46.070;14.492;2023-05-07T02:26:40;2.65;;;2.10;;
74152;SDS011;62505;46.070;14.492;2023-05-07T02:29:07;4.03;;;2.60;;
74152;SDS011;62505;46.070;14.492;2023-05-07T02:31:35;3.10;;;2.28;;
74152;SDS011;62505;46.070;14.492;2023-05-07T02:34:02;2.63;;;2.40;;
74152;SDS011;62505;46.070;14.492;2023-05-07T02:36:29;2.75;;;2.10;;
74152;SDS011;62505;46.070;14.492;2023-05-07T02:38:55;3.70;;;2.05;;
74152;SDS011;62505;46.070;14.492;2023-05-07T02:41:22;3.35;;;2.35;;
74152;SDS011;62505;46.070;14.492;2023-05-07T02:43:49;2.25;;;1.98;;
74152;SDS011;62505;46.070;14.492;2023-05-07T02:46:16;3.03;;;2.40;;
74152;SDS011;62505;46.070;14.492;2023-05-07T02:48:44;2.60;;;2.33;;
74152;SDS011;62505;46.070;14.492;2023-05-07T02:51:11;3.97;;;2.20;;
74152;SDS011;62505;46.070;14.492;2023-05-07T02:53:38;2.50;;;2.22;;
74152;SDS011;62505;46.070;14.492;2023-05-07T02:56:05;2.53;;;2.30;;
74152;SDS011;62505;46.070;14.492;2023-05-07T02:58:32;3.17;;;2.00;;
74152;SDS011;62505;46.070;14.492;2023-05-07T03:00:59;3.15;;;2.65;;
74152;SDS011;62505;46.070;14.492;2023-05-07T03:03:26;2.95;;;2.42;;
74152;SDS011;62505;46.070;14.492;2023-05-07T03:05:55;2.17;;;1.95;;
74152;SDS011;62505;46.070;14.492;2023-05-07T03:08:22;2.95;;;2.20;;
74152;SDS011;62505;46.070;14.492;2023-05-07T03:10:50;2.85;;;2.20;;
74152;SDS011;62505;46.070;14.492;2023-05-07T03:13:17;4.80;;;2.38;;
74152;SDS011;62505;46.070;14.492;2023-05-07T03:15:44;2.72;;;2.40;;
74152;SDS011;62505;46.070;14.492;2023-05-07T03:18:11;2.67;;;2.30;;
74152;SDS011;62505;46.070;14.492;2023-05-07T03:20:38;2.80;;;2.10;;
74152;SDS011;62505;46.070;14.492;2023-05-07T03:23:06;2.60;;;2.40;;
74152;SDS011;62505;46.070;14.492;2023-05-07T03:25:33;2.83;;;2.10;;
74152;SDS011;62505;46.070;14.492;2023-05-07T03:28:00;3.33;;;2.08;;
74152;SDS011;62505;46.070;14.492;2023-05-07T03:30:27;2.15;;;1.85;;
74152;SDS011;62505;46.070;14.492;2023-05-07T03:32:53;2.13;;;1.90;;
74152;SDS011;62505;46.070;14.492;2023-05-07T03:35:20;3.17;;;2.30;;
74152;SDS011;62505;46.070;14.492;2023-05-07T03:37:47;2.67;;;2.13;;
74152;SDS011;62505;46.070;14.492;2023-05-07T03:40:15;2.50;;;2.15;;
74152;SDS011;62505;46.070;14.492;2023-05-07T03:42:42;3.08;;;2.40;;
74152;SDS011;62505;46.070;14.492;2023-05-07T03:45:09;2.33;;;2.13;;
74152;SDS011;62505;46.070;14.492;2023-05-07T03:47:36;2.53;;;2.30;;
74152;SDS011;62505;46.070;14.492;2023-05-07T03:50:03;2.50;;;2.10;;
74152;SDS011;62505;46.070;14.492;2023-05-07T03:52:31;2.38;;;2.15;;
74152;SDS011;62505;46.070;14.492;2023-05-07T03:54:57;3.15;;;2.20;;
74152;SDS011;62505;46.070;14.492;2023-05-07T03:57:26;3.30;;;2.38;;
74152;SDS011;62505;46.070;14.492;2023-05-07T03:59:52;3.00;;;2.35;;
74152;SDS011;62505;46.070;14.492;2023-05-07T04:02:19;3.00;;;2.22;;
74152;SDS011;62505;46.070;14.492;2023-05-07T04:04:48;2.33;;;2.13;;
74152;SDS011;62505;46.070;14.492;2023-05-07T04:07:15;2.75;;;2.10;;
74152;SDS011;62505;46.070;14.492;2023-05-07T04:09:42;2.80;;;2.10;;
74152;SDS011;62505;46.070;14.492;2023-05-07T04:12:08;3.65;;;2.55;;
74152;SDS011;62505;46.070;14.492;2023-05-07T04:14:37;2.72;;;1.90;;
74152;SDS011;62505;46.070;14.492;2023-05-07T04:17:04;2.75;;;2.00;;
74152;SDS011;62505;46.070;14.492;2023-05-07T04:19:32;2.20;;;2.00;;
74152;SDS011;62505;46.070;14.492;2023-05-07T04:21:59;2.65;;;1.92;;
74152;SDS011;62505;46.070;14.492;2023-05-07T04:24:26;2.45;;;1.88;;
74152;SDS011;62505;46.070;14.492;2023-05-07T04:26:53;3.17;;;2.35;;
74152;SDS011;62505;46.070;14.492;2023-05-07T04:29:20;2.85;;;2.25;;
74152;SDS011;62505;46.070;14.492;2023-05-07T04:31:48;4.05;;;2.33;;
74152;SDS011;62505;46.070;14.492;2023-05-07T04:34:15;2.60;;;2.10;;
74152;SDS011;62505;46.070;14.492;2023-05-07T04:36:42;3.38;;;1.80;;
74152;SDS011;62505;46.070;14.492;2023-05-07T04:39:09;2.95;;;2.10;;
74152;SDS011;62505;46.070;14.492;2023-05-07T04:41:36;2.28;;;2.08;;
74152;SDS011;62505;46.070;14.492;2023-05-07T04:44:03;2.60;;;2.38;;
74152;SDS011;62505;46.070;14.492;2023-05-07T04:46:31;2.78;;;2.25;;
74152;SDS011;62505;46.070;14.492;2023-05-07T04:48:59;2.22;;;1.95;;
74152;SDS011;62505;46.070;14.492;2023-05-07T04:51:26;2.55;;;1.85;;
74152;SDS011;62505;46.070;14.492;2023-05-07T04:53:53;2.75;;;2.22;;
74152;SDS011;62505;46.070;14.492;2023-05-07T04:56:19;2.20;;;1.98;;
74152;SDS011;62505;46.070;14.492;2023-05-07T04:58:46;2.13;;;1.92;;
74152;SDS011;62505;46.070;14.492;2023-05-07T05:01:13;3.15;;;2.25;;
74152;SDS011;62505;46.070;14.492;2023-05-07T05:03:40;3.03;;;2.33;;
74152;SDS011;62505;46.070;14.492;2023-05-07T05:06:09;2.53;;;2.28;;
74152;SDS011;62505;46.070;14.492;2023-05-07T05:08:36;2.63;;;2.25;;
74152;SDS011;62505;46.070;14.492;2023-05-07T05:11:03;2.25;;;1.95;;
74152;SDS011;62505;46.070;14.492;2023-05-07T05:13:30;2.25;;;2.00;;
74152;SDS011;62505;46.070;14.492;2023-05-07T05:15:56;3.08;;;2.00;;
74152;SDS011;62505;46.070;14.492;2023-05-07T05:18:23;3.40;;;2.50;;
74152;SDS011;62505;46.070;14.492;2023-05-07T05:20:51;2.33;;;2.10;;
74152;SDS011;62505;46.070;14.492;2023-05-07T05:23:19;3.05;;;2.08;;
74152;SDS011;62505;46.070;14.492;2023-05-07T05:25:46;3.08;;;2.20;;
74152;SDS011;62505;46.070;14.492;2023-05-07T05:28:13;2.10;;;1.90;;
74152;SDS011;62505;46.070;14.492;2023-05-07T05:30:40;2.67;;;2.22;;
74152;SDS011;62505;46.070;14.492;2023-05-07T05:33:06;2.13;;;1.70;;
74152;SDS011;62505;46.070;14.492;2023-05-07T05:35:33;2.22;;;1.88;;
74152;SDS011;62505;46.070;14.492;2023-05-07T05:38:01;3.20;;;2.20;;
74152;SDS011;62505;46.070;14.492;2023-05-07T05:40:29;2.90;;;2.22;;
74152;SDS011;62505;46.070;14.492;2023-05-07T05:42:56;2.90;;;2.20;;
74152;SDS011;62505;46.070;14.492;2023-05-07T05:45:23;2.95;;;2.13;;
74152;SDS011;62505;46.070;14.492;2023-05-07T05:47:50;2.45;;;1.80;;
74152;SDS011;62505;46.070;14.492;2023-05-07T05:50:17;2.30;;;1.85;;
74152;SDS011;62505;46.070;14.492;2023-05-07T05:52:44;2.50;;;2.00;;
74152;SDS011;62505;46.070;14.492;2023-05-07T05:55:10;2.78;;;2.15;;
74152;SDS011;62505;46.070;14.492;2023-05-07T05:57:39;2.50;;;2.10;;
74152;SDS011;62505;46.070;14.492;2023-05-07T06:00:06;3.00;;;2.00;;
74152;SDS011;62505;46.070;14.492;2023-05-07T06:02:34;2.30;;;2.10;;
74152;SDS011;62505;46.070;14.492;2023-05-07T06:05:01;2.05;;;1.85;;
74152;SDS011;62505;46.070;14.492;2023-05-07T06:07:28;2.20;;;1.98;;
74152;SDS011;62505;46.070;14.492;2023-05-07T06:09:54;2.60;;;2.15;;
74152;SDS011;62505;46.070;14.492;2023-05-07T06:12:21;1.83;;;1.65;;
74152;SDS011;62505;46.070;14.492;2023-05-07T06:14:49;2.78;;;2.17;;
74152;SDS011;62505;46.070;14.492;2023-05-07T06:17:17;2.90;;;1.92;;
74152;SDS011;62505;46.070;14.492;2023-05-07T06:19:44;2.47;;;1.98;;
74152;SDS011;62505;46.070;14.492;2023-05-07T06:22:11;2.22;;;2.00;;
74152;SDS011;62505;46.070;14.492;2023-05-07T06:24:38;2.42;;;2.03;;
74152;SDS011;62505;46.070;14.492;2023-05-07T06:27:04;2.70;;;1.70;;
74152;SDS011;62505;46.070;14.492;2023-05-07T06:29:31;2.92;;;2.13;;
74152;SDS011;62505;46.070;14.492;2023-05-07T06:32:07;2.40;;;2.08;;
74152;SDS011;62505;46.070;14.492;2023-05-07T06:34:34;2.55;;;2.03;;
74152;SDS011;62505;46.070;14.492;2023-05-07T06:37:01;2.72;;;2.15;;
74152;SDS011;62505;46.070;14.492;2023-05-07T06:39:28;1.98;;;1.70;;
74152;SDS011;62505;46.070;14.492;2023-05-07T06:41:55;2.17;;;1.85;;
74152;SDS011;62505;46.070;14.492;2023-05-07T06:44:22;2.22;;;2.00;;
74152;SDS011;62505;46.070;14.492;2023-05-07T06:46:49;2.42;;;1.75;;
74152;SDS011;62505;46.070;14.492;2023-05-07T06:49:17;2.08;;;1.77;;
74152;SDS011;62505;46.070;14.492;2023-05-07T06:51:44;2.38;;;2.05;;
74152;SDS011;62505;46.070;14.492;2023-05-07T06:54:11;2.22;;;2.00;;
74152;SDS011;62505;46.070;14.492;2023-05-07T06:56:37;2.13;;;1.92;;
74152;SDS011;62505;46.070;14.492;2023-05-07T06:59:04;2.30;;;1.95;;
74152;SDS011;62505;46.070;14.492;2023-05-07T07:01:32;2.42;;;2.17;;
74152;SDS011;62505;46.070;14.492;2023-05-07T07:03:59;3.60;;;2.35;;
74152;SDS011;62505;46.070;14.492;2023-05-07T07:06:27;3.42;;;2.30;;
74152;SDS011;62505;46.070;14.492;2023-05-07T07:08:56;2.78;;;2.58;;
74152;SDS011;62505;46.070;14.492;2023-05-07T07:11:23;3.22;;;2.47;;
74152;SDS011;62505;46.070;14.492;2023-05-07T07:13:50;4.53;;;2.63;;
74152;SDS011;62505;46.070;14.492;2023-05-07T07:16:19;3.92;;;2.70;;
74152;SDS011;62505;46.070;14.492;2023-05-07T07:18:46;6.50;;;2.83;;
74152;SDS011;62505;46.070;14.492;2023-05-07T07:21:13;3.97;;;2.60;;
74152;SDS011;62505;46.070;14.492;2023-05-07T07:23:41;3.05;;;2.75;;
74152;SDS011;62505;46.070;14.492;2023-05-07T07:26:08;3.10;;;2.80;;
74152;SDS011;62505;46.070;14.492;2023-05-07T07:28:35;2.92;;;2.47;;
74152;SDS011;62505;46.070;14.492;2023-05-07T07:31:07;3.53;;;3.03;;
74152;SDS011;62505;46.070;14.492;2023-05-07T07:33:34;3.50;;;2.75;;
74152;SDS011;62505;46.070;14.492;2023-05-07T07:36:01;3.05;;;2.72;;
74152;SDS011;62505;46.070;14.492;2023-05-07T07:38:28;3.60;;;2.78;;
74152;SDS011;62505;46.070;14.492;2023-05-07T07:40:56;2.75;;;2.50;;
74152;SDS011;62505;46.070;14.492;2023-05-07T07:43:23;3.47;;;2.85;;
74152;SDS011;62505;46.070;14.492;2023-05-07T07:45:50;4.15;;;3.08;;
74152;SDS011;62505;46.070;14.492;2023-05-07T07:48:17;3.63;;;2.90;;
74152;SDS011;62505;46.070;14.492;2023-05-07T07:50:44;4.28;;;3.05;;
74152;SDS011;62505;46.070;14.492;2023-05-07T07:53:10;3.67;;;2.80;;
74152;SDS011;62505;46.070;14.492;2023-05-07T07:55:38;4.30;;;3.20;;
74152;SDS011;62505;46.070;14.492;2023-05-07T07:58:06;4.20;;;3.08;;
74152;SDS011;62505;46.070;14.492;2023-05-07T08:00:33;3.72;;;2.92;;
74152;SDS011;62505;46.070;14.492;2023-05-07T08:03:00;5.93;;;2.70;;
74152;SDS011;62505;46.070;14.492;2023-05-07T08:05:28;3.63;;;2.80;;
74152;SDS011;62505;46.070;14.492;2023-05-07T08:07:55;4.38;;;3.17;;
74152;SDS011;62505;46.070;14.492;2023-05-07T08:10:23;4.47;;;3.28;;
74152;SDS011;62505;46.070;14.492;2023-05-07T08:12:50;4.88;;;3.42;;
74152;SDS011;62505;46.070;14.492;2023-05-07T08:15:19;3.15;;;2.85;;
74152;SDS011;62505;46.070;14.492;2023-05-07T08:17:45;8.18;;;3.20;;
74152;SDS011;62505;46.070;14.492;2023-05-07T08:20:12;3.50;;;3.00;;
74152;SDS011;62505;46.070;14.492;2023-05-07T08:22:40;3.92;;;2.88;;
74152;SDS011;62505;46.070;14.492;2023-05-07T08:25:07;3.55;;;2.55;;
74152;SDS011;62505;46.070;14.492;2023-05-07T08:27:34;3.17;;;2.60;;
74152;SDS011;62505;46.070;14.492;2023-05-07T08:30:01;4.15;;;3.10;;
74152;SDS011;62505;46.070;14.492;2023-05-07T08:32:30;4.82;;;2.80;;
74152;SDS011;62505;46.070;14.492;2023-05-07T08:34:57;3.55;;;2.72;;
74152;SDS011;62505;46.070;14.492;2023-05-07T08:37:24;3.42;;;3.00;;
74152;SDS011;62505;46.070;14.492;2023-05-07T08:39:50;5.55;;;2.78;;
74152;SDS011;62505;46.070;14.492;2023-05-07T08:42:17;4.20;;;2.65;;
74152;SDS011;62505;46.070;14.492;2023-05-07T08:44:46;3.92;;;2.88;;
74152;SDS011;62505;46.070;14.492;2023-05-07T08:47:18;6.07;;;2.90;;
74152;SDS011;62505;46.070;14.492;2023-05-07T08:49:47;4.55;;;3.10;;
74152;SDS011;62505;46.070;14.492;2023-05-07T08:52:14;9.90;;;3.15;;
74152;SDS011;62505;46.070;14.492;2023-05-07T08:54:41;5.05;;;3.08;;
74152;SDS011;62505;46.070;14.492;2023-05-07T08:57:09;2.78;;;2.40;;
74152;SDS011;62505;46.070;14.492;2023-05-07T08:59:36;4.22;;;2.97;;
74152;SDS011;62505;46.070;14.492;2023-05-07T09:02:03;4.30;;;2.80;;
74152;SDS011;62505;46.070;14.492;2023-05-07T09:04:30;4.18;;;2.92;;
74152;SDS011;62505;46.070;14.492;2023-05-07T09:06:59;2.83;;;2.55;;
74152;SDS011;62505;46.070;14.492;2023-05-07T09:09:31;3.30;;;2.83;;
74152;SDS011;62505;46.070;14.492;2023-05-07T09:11:58;4.00;;;2.90;;
74152;SDS011;62505;46.070;14.492;2023-05-07T09:14:25;3.35;;;2.80;;
74152;SDS011;62505;46.070;14.492;2023-05-07T09:16:52;3.30;;;2.78;;
74152;SDS011;62505;46.070;14.492;2023-05-07T09:19:22;5.53;;;3.10;;
74152;SDS011;62505;46.070;14.492;2023-05-07T09:21:48;5.78;;;2.80;;
74152;SDS011;62505;46.070;14.492;2023-05-07T09:24:17;3.40;;;2.50;;
74152;SDS011;62505;46.070;14.492;2023-05-07T09:26:43;5.75;;;3.00;;
74152;SDS011;62505;46.070;14.492;2023-05-07T09:29:10;5.28;;;2.67;;
74152;SDS011;62505;46.070;14.492;2023-05-07T09:31:37;3.33;;;2.63;;
74152;SDS011;62505;46.070;14.492;2023-05-07T09:34:04;4.95;;;3.40;;
74152;SDS011;62505;46.070;14.492;2023-05-07T09:36:31;4.03;;;2.97;;
74152;SDS011;62505;46.070;14.492;2023-05-07T09:38:59;3.42;;;2.72;;
74152;SDS011;62505;46.070;14.492;2023-05-07T09:41:27;4.18;;;3.22;;
74152;SDS011;62505;46.070;14.492;2023-05-07T09:43:56;3.28;;;2.97;;
74152;SDS011;62505;46.070;14.492;2023-05-07T09:46:27;3.13;;;2.80;;
74152;SDS011;62505;46.070;14.492;2023-05-07T09:48:57;3.60;;;3.08;;
74152;SDS011;62505;46.070;14.492;2023-05-07T09:51:25;3.03;;;2.75;;
74152;SDS011;62505;46.070;14.492;2023-05-07T09:53:56;3.10;;;2.70;;
74152;SDS011;62505;46.070;14.492;2023-05-07T09:56:25;2.90;;;2.60;;
74152;SDS011;62505;46.070;14.492;2023-05-07T09:58:55;4.22;;;3.17;;
74152;SDS011;62505;46.070;14.492;2023-05-07T10:01:25;3.17;;;2.90;;
74152;SDS011;62505;46.070;14.492;2023-05-07T10:03:53;3.58;;;3.15;;
74152;SDS011;62505;46.070;14.492;2023-05-07T10:06:20;4.22;;;2.88;;
74152;SDS011;62505;46.070;14.492;2023-05-07T10:08:50;4.78;;;3.17;;
74152;SDS011;62505;46.070;14.492;2023-05-07T10:11:17;4.70;;;3.25;;
74152;SDS011;62505;46.070;14.492;2023-05-07T10:13:46;4.28;;;2.88;;
74152;SDS011;62505;46.070;14.492;2023-05-07T10:16:14;3.30;;;2.78;;
74152;SDS011;62505;46.070;14.492;2023-05-07T10:18:41;5.38;;;3.00;;
74152;SDS011;62505;46.070;14.492;2023-05-07T10:21:11;3.63;;;3.33;;
74152;SDS011;62505;46.070;14.492;2023-05-07T10:23:41;4.50;;;2.92;;
74152;SDS011;62505;46.070;14.492;2023-05-07T10:26:12;3.20;;;2.90;;
74152;SDS011;62505;46.070;14.492;2023-05-07T10:28:42;4.35;;;3.30;;
74152;SDS011;62505;46.070;14.492;2023-05-07T10:31:18;6.63;;;3.75;;
74152;SDS011;62505;46.070;14.492;2023-05-07T10:33:55;4.72;;;3.13;;
74152;SDS011;62505;46.070;14.492;2023-05-07T10:36:24;5.03;;;2.92;;
74152;SDS011;62505;46.070;14.492;2023-05-07T10:38:51;4.53;;;3.30;;
74152;SDS011;62505;46.070;14.492;2023-05-07T10:41:19;4.45;;;3.28;;
74152;SDS011;62505;46.070;14.492;2023-05-07T10:43:47;3.92;;;3.40;;
74152;SDS011;62505;46.070;14.492;2023-05-07T10:46:16;3.33;;;3.03;;
74152;SDS011;62505;46.070;14.492;2023-05-07T10:51:32;4.43;;;3.78;;
74152;SDS011;62505;46.070;14.492;2023-05-07T10:54:22;7.30;;;3.92;;
74152;SDS011;62505;46.070;14.492;2023-05-07T10:56:52;4.65;;;3.60;;
74152;SDS011;62505;46.070;14.492;2023-05-07T10:59:31;8.63;;;3.88;;
74152;SDS011;62505;46.070;14.492;2023-05-07T11:02:08;4.65;;;3.67;;
74152;SDS011;62505;46.070;14.492;2023-05-07T11:04:36;5.60;;;3.53;;
74152;SDS011;62505;46.070;14.492;2023-05-07T11:09:55;5.00;;;3.45;;
74152;SDS011;62505;46.070;14.492;2023-05-07T11:15:36;6.95;;;3.63;;
74152;SDS011;62505;46.070;14.492;2023-05-07T11:18:06;5.22;;;3.55;;
74152;SDS011;62505;46.070;14.492;2023-05-07T11:20:52;4.65;;;3.80;;
74152;SDS011;62505;46.070;14.492;2023-05-07T11:26:22;8.48;;;4.00;;
74152;SDS011;62505;46.070;14.492;2023-05-07T11:28:50;16.80;;;5.30;;
74152;SDS011;62505;46.070;14.492;2023-05-07T11:31:22;13.63;;;5.10;;
74152;SDS011;62505;46.070;14.492;2023-05-07T11:33:52;8.50;;;4.05;;
74152;SDS011;62505;46.070;14.492;2023-05-07T11:36:20;14.32;;;4.85;;
74152;SDS011;62505;46.070;14.492;2023-05-07T11:38:48;10.73;;;3.67;;
74152;SDS011;62505;46.070;14.492;2023-05-07T11:41:15;7.82;;;4.07;;
74152;SDS011;62505;46.070;14.492;2023-05-07T11:43:54;9.10;;;4.20;;
74152;SDS011;62505;46.070;14.492;2023-05-07T11:46:22;6.05;;;3.67;;
74152;SDS011;62505;46.070;14.492;2023-05-07T11:48:49;10.55;;;4.13;;
74152;SDS011;62505;46.070;14.492;2023-05-07T11:51:19;7.40;;;3.78;;
74152;SDS011;62505;46.070;14.492;2023-05-07T11:53:47;10.25;;;4.20;;
74152;SDS011;62505;46.070;14.492;2023-05-07T11:56:15;4.30;;;3.67;;
74152;SDS011;62505;46.070;14.492;2023-05-07T11:58:43;9.52;;;4.05;;
74152;SDS011;62505;46.070;14.492;2023-05-07T12:01:11;6.63;;;3.75;;
74152;SDS011;62505;46.070;14.492;2023-05-07T12:03:39;6.68;;;3.63;;
74152;SDS011;62505;46.070;14.492;2023-05-07T12:06:08;6.47;;;3.80;;
74152;SDS011;62505;46.070;14.492;2023-05-07T12:08:37;7.85;;;3.65;;
74152;SDS011;62505;46.070;14.492;2023-05-07T12:11:07;6.05;;;3.72;;
74152;SDS011;62505;46.070;14.492;2023-05-07T12:13:36;5.65;;;3.90;;
74152;SDS011;62505;46.070;14.492;2023-05-07T12:16:04;9.30;;;3.50;;
74152;SDS011;62505;46.070;14.492;2023-05-07T12:18:32;4.60;;;3.25;;
74152;SDS011;62505;46.070;14.492;2023-05-07T12:21:05;5.38;;;3.47;;
74152;SDS011;62505;46.070;14.492;2023-05-07T12:23:33;3.30;;;3.00;;
74152;SDS011;62505;46.070;14.492;2023-05-07T12:26:03;7.78;;;3.67;;
74152;SDS011;62505;46.070;14.492;2023-05-07T12:28:31;7.40;;;3.53;;
74152;SDS011;62505;46.070;14.492;2023-05-07T12:31:02;9.82;;;3.92;;
74152;SDS011;62505;46.070;14.492;2023-05-07T12:33:29;8.07;;;3.75;;
74152;SDS011;62505;46.070;14.492;2023-05-07T12:35:57;5.93;;;3.25;;
74152;SDS011;62505;46.070;14.492;2023-05-07T12:38:32;4.93;;;3.92;;
74152;SDS011;62505;46.070;14.492;2023-05-07T12:41:03;3.85;;;3.35;;
74152;SDS011;62505;46.070;14.492;2023-05-07T12:43:31;4.20;;;3.80;;
74152;SDS011;62505;46.070;14.492;2023-05-07T12:46:03;4.15;;;3.17;;
74152;SDS011;62505;46.070;14.492;2023-05-07T12:48:30;6.00;;;3.70;;
74152;SDS011;62505;46.070;14.492;2023-05-07T12:50:58;5.15;;;3.13;;
74152;SDS011;62505;46.070;14.492;2023-05-07T12:53:27;3.35;;;3.05;;
74152;SDS011;62505;46.070;14.492;2023-05-07T12:55:56;3.28;;;2.92;;
74152;SDS011;62505;46.070;14.492;2023-05-07T12:58:28;4.43;;;3.20;;
74152;SDS011;62505;46.070;14.492;2023-05-07T13:01:00;3.53;;;3.13;;
74152;SDS011;62505;46.070;14.492;2023-05-07T13:03:35;4.30;;;3.30;;
74152;SDS011;62505;46.070;14.492;2023-05-07T13:06:03;4.05;;;3.25;;
74152;SDS011;62505;46.070;14.492;2023-05-07T13:08:31;3.58;;;2.90;;
74152;SDS011;62505;46.070;14.492;2023-05-07T13:11:00;4.00;;;3.17;;
74152;SDS011;62505;46.070;14.492;2023-05-07T13:13:30;5.15;;;3.28;;
74152;SDS011;62505;46.070;14.492;2023-05-07T13:15:58;5.10;;;3.20;;
74152;SDS011;62505;46.070;14.492;2023-05-07T13:18:25;5.70;;;3.17;;
74152;SDS011;62505;46.070;14.492;2023-05-07T13:20:56;4.00;;;3.13;;
74152;SDS011;62505;46.070;14.492;2023-05-07T13:23:23;5.38;;;3.17;;
74152;SDS011;62505;46.070;14.492;2023-05-07T13:25:50;3.63;;;3.15;;
74152;SDS011;62505;46.070;14.492;2023-05-07T13:28:19;3.92;;;2.65;;
74152;SDS011;62505;46.070;14.492;2023-05-07T13:30:48;4.20;;;2.83;;
74152;SDS011;62505;46.070;14.492;2023-05-07T13:33:17;5.45;;;3.10;;
74152;SDS011;62505;46.070;14.492;2023-05-07T13:35:45;6.93;;;3.45;;
74152;SDS011;62505;46.070;14.492;2023-05-07T13:38:12;4.28;;;3.30;;
74152;SDS011;62505;46.070;14.492;2023-05-07T13:40:40;7.47;;;2.75;;
74152;SDS011;62505;46.070;14.492;2023-05-07T13:43:07;3.85;;;3.33;;
74152;SDS011;62505;46.070;14.492;2023-05-07T13:45:35;3.75;;;3.10;;
74152;SDS011;62505;46.070;14.492;2023-05-07T13:48:03;4.68;;;3.13;;
74152;SDS011;62505;46.070;14.492;2023-05-07T13:50:30;5.00;;;3.40;;
74152;SDS011;62505;46.070;14.492;2023-05-07T13:52:57;3.92;;;3.33;;
74152;SDS011;62505;46.070;14.492;2023-05-07T13:55:24;6.40;;;3.45;;
74152;SDS011;62505;46.070;14.492;2023-05-07T13:57:55;5.45;;;3.70;;
74152;SDS011;62505;46.070;14.492;2023-05-07T14:00:23;4.57;;;3.40;;
74152;SDS011;62505;46.070;14.492;2023-05-07T14:02:50;4.28;;;3.85;;
74152;SDS011;62505;46.070;14.492;2023-05-07T14:05:18;3.42;;;3.08;;
74152;SDS011;62505;46.070;14.492;2023-05-07T14:07:45;5.13;;;3.20;;
74152;SDS011;62505;46.070;14.492;2023-05-07T14:10:14;4.60;;;3.65;;
74152;SDS011;62505;46.070;14.492;2023-05-07T14:12:41;4.95;;;3.85;;
74152;SDS011;62505;46.070;14.492;2023-05-07T14:15:08;3.78;;;3.40;;
74152;SDS011;62505;46.070;14.492;2023-05-07T14:17:35;3.78;;;3.13;;
74152;SDS011;62505;46.070;14.492;2023-05-07T14:20:02;4.45;;;3.42;;
74152;SDS011;62505;46.070;14.492;2023-05-07T14:22:32;3.28;;;2.95;;
74152;SDS011;62505;46.070;14.492;2023-05-07T14:24:59;3.75;;;3.00;;
74152;SDS011;62505;46.070;14.492;2023-05-07T14:27:26;7.13;;;3.22;;
74152;SDS011;62505;46.070;14.492;2023-05-07T14:29:53;3.65;;;3.13;;
74152;SDS011;62505;46.070;14.492;2023-05-07T14:32:20;4.03;;;3.28;;
74152;SDS011;62505;46.070;14.492;2023-05-07T14:34:47;3.30;;;3.00;;
74152;SDS011;62505;46.070;14.492;2023-05-07T14:37:14;3.45;;;3.15;;
74152;SDS011;62505;46.070;14.492;2023-05-07T14:39:42;5.07;;;3.35;;
74152;SDS011;62505;46.070;14.492;2023-05-07T14:42:09;4.63;;;3.35;;
74152;SDS011;62505;46.070;14.492;2023-05-07T14:44:37;3.53;;;3.22;;
74152;SDS011;62505;46.070;14.492;2023-05-07T14:47:05;4.32;;;3.40;;
74152;SDS011;62505;46.070;14.492;2023-05-07T14:49:32;4.15;;;3.03;;